Time;durP1;ratioP1;P1;durP2;ratioP2;P2;SDS_P1;SDS_P2;PMS_P1;PMS_P2;Temp;Humidity;BMP_temperature;BMP_pressure;BME280_temperature;BME280_humidity;BME280_pressure;Samples;Min_cycle;Max_cycle;Signal;HPM_P1;HPM_P2
2023/07/03 00:01:03;;;;;;;7.28;3.88;;;;;;;21.66;94.04;99160.94;5111956;28;20043;-84
2023/07/03 00:03:29;;;;;;;5.35;2.53;;;;;;;21.44;94.41;99125.72;5110647;28;20039;-84
2023/07/03 00:05:54;;;;;;;8.27;3.67;;;;;;;21.48;93.58;99118.31;5110480;28;20062;-83
2023/07/03 00:08:20;;;;;;;4.05;3.03;;;;;;;21.31;93.97;99119.47;5112077;28;20031;-83
2023/07/03 00:10:45;;;;;;;1.45;1.08;;;;;;;21.40;94.87;99150.19;5105106;28;20032;-84
2023/07/03 00:13:11;;;;;;;13.77;3.28;;;;;;;21.10;96.54;99130.69;5091793;28;20084;-84
2023/07/03 00:15:37;;;;;;;5.35;2.90;;;;;;;21.18;95.89;99143.59;5091660;28;20032;-84
2023/07/03 00:18:03;;;;;;;3.75;3.22;;;;;;;21.18;95.73;99138.22;5091811;28;20028;-83
2023/07/03 00:20:28;;;;;;;3.85;2.33;;;;;;;21.20;94.78;99120.19;5091308;28;20027;-84
2023/07/03 00:22:54;;;;;;;8.70;3.05;;;;;;;21.40;94.01;99150.19;5092650;28;20055;-83
2023/07/03 00:25:21;;;;;;;2.72;1.92;;;;;;;21.37;93.59;99148.56;5091729;28;20422;-83
2023/07/03 00:27:47;;;;;;;4.57;2.88;;;;;;;21.21;93.50;99121.94;5091247;28;20032;-83
2023/07/03 00:30:14;;;;;;;5.22;2.45;;;;;;;21.37;92.87;99139.66;5091629;28;20035;-84
2023/07/03 00:32:39;;;;;;;4.47;2.83;;;;;;;21.38;93.25;99150.28;5099379;28;20127;-83
2023/07/03 00:35:06;;;;;;;9.43;3.17;;;;;;;21.42;93.00;99153.59;5111615;28;20111;-83
2023/07/03 00:37:33;;;;;;;4.53;2.60;;;;;;;21.46;93.18;99163.16;5103412;28;20043;-83
2023/07/03 00:39:58;;;;;;;4.78;2.50;;;;;;;21.36;92.90;99146.81;5111592;28;20045;-84
2023/07/03 00:42:26;;;;;;;6.80;1.95;;;;;;;21.49;92.53;99159.41;5096426;28;20131;-84
2023/07/03 00:44:51;;;;;;;16.27;3.38;;;;;;;21.36;92.97;99162.06;5091218;28;20056;-83
2023/07/03 00:47:17;;;;;;;5.68;2.95;;;;;;;21.19;92.73;99129.19;5092151;28;20031;-83
2023/07/03 00:49:42;;;;;;;4.57;2.20;;;;;;;21.32;92.44;99141.78;5108332;28;20081;-83
2023/07/03 00:52:11;;;;;;;4.30;2.67;;;;;;;21.31;92.79;99143.59;5091252;28;20024;-84
2023/07/03 00:54:37;;;;;;;8.02;3.17;;;;;;;21.15;91.77;99110.75;5109226;28;20113;-84
2023/07/03 00:57:04;;;;;;;6.65;3.58;;;;;;;21.28;91.71;99136.63;5111544;28;20081;-82
2023/07/03 00:59:29;;;;;;;12.85;4.45;;;;;;;21.19;92.79;99166.75;5102738;28;20474;-83
2023/07/03 01:02:20;;;;;;;6.20;2.97;;;;;;;21.19;92.72;99153.34;5091060;28;20425;-83
2023/07/03 01:04:58;;;;;;;7.43;2.58;;;;;;;21.16;92.11;99142.81;5090561;28;20035;-83
2023/07/03 01:07:30;;;;;;;3.53;2.45;;;;;;;21.24;91.12;99161.94;5090309;28;20059;-83
2023/07/03 01:09:59;;;;;;;5.05;3.65;;;;;;;20.87;92.02;99131.41;5107997;28;20556;-84
2023/07/03 01:12:28;;;;;;;6.97;3.25;;;;;;;21.14;92.17;99158.16;5102869;28;20028;-84
2023/07/03 01:14:58;;;;;;;6.43;4.03;;;;;;;21.04;91.13;99136.47;5090692;28;20028;-84
2023/07/03 01:17:25;;;;;;;3.42;2.33;;;;;;;20.87;92.74;99159.06;5090342;28;20490;-83
2023/07/03 01:19:52;;;;;;;5.07;1.85;;;;;;;20.78;92.99;99137.38;5090559;28;20039;-83
2023/07/03 01:22:48;;;;;;;22.10;3.30;;;;;;;21.08;92.07;99159.41;5091580;28;20512;-83
2023/07/03 01:25:19;;;;;;;3.22;2.75;;;;;;;20.95;91.67;99152.34;5075872;28;20070;-83
2023/07/03 01:27:49;;;;;;;13.98;3.60;;;;;;;21.09;91.06;99160.31;5093121;28;20031;-83
2023/07/03 01:30:16;;;;;;;3.85;2.00;;;;;;;21.07;91.11;99168.44;5110649;28;20469;-83
2023/07/03 01:32:45;;;;;;;4.50;2.63;;;;;;;20.86;91.50;99143.91;5109393;28;20066;-83
2023/07/03 01:35:11;;;;;;;3.78;2.25;;;;;;;20.97;91.94;99166.47;5090205;28;20524;-83
2023/07/03 01:37:40;;;;;;;6.35;3.33;;;;;;;20.73;91.94;99138.53;5090310;28;20024;-83
2023/07/03 01:40:11;;;;;;;9.10;4.05;;;;;;;21.05;90.71;99169.50;5091116;28;20434;-83
2023/07/03 01:42:38;;;;;;;5.15;3.70;;;;;;;20.79;91.70;99142.63;5090346;28;20486;-83
2023/07/03 01:45:05;;;;;;;3.55;1.88;;;;;;;20.80;92.05;99176.47;5090042;28;20113;-83
2023/07/03 01:47:30;;;;;;;6.07;2.65;;;;;;;20.62;93.06;99150.84;5090104;28;20024;-84
2023/07/03 01:49:56;;;;;;;5.80;3.33;;;;;;;20.51;93.88;99143.50;5089887;28;20098;-84
2023/07/03 01:52:30;;;;;;;6.05;3.05;;;;;;;20.75;92.58;99178.63;5090542;28;20054;-84
2023/07/03 01:55:05;;;;;;;3.15;2.05;;;;;;;20.68;93.15;99175.50;5091040;28;20047;-83
2023/07/03 01:57:56;;;;;;;3.88;2.55;;;;;;;20.75;92.92;99195.53;5089411;28;20501;-87
2023/07/03 02:00:46;;;;;;;9.02;2.50;;;;;;;20.79;92.53;99179.25;5090015;28;20024;-82
2023/07/03 02:03:40;;;;;;;8.68;3.83;;;;;;;20.75;92.52;99183.97;5089488;28;20582;-83
2023/07/03 02:06:15;;;;;;;4.07;2.90;;;;;;;20.63;93.37;99166.84;5090469;28;20425;-83
2023/07/03 02:08:41;;;;;;;9.70;4.38;;;;;;;20.67;93.96;99189.84;5090040;28;20116;-82
2023/07/03 02:11:17;;;;;;;4.45;3.15;;;;;;;20.66;93.50;99168.50;5089503;28;20430;-83
2023/07/03 02:13:42;;;;;;;6.25;3.25;;;;;;;20.80;93.14;99197.94;5108935;28;20032;-83
2023/07/03 02:16:08;;;;;;;12.73;4.40;;;;;;;20.63;93.09;99174.03;5107849;28;20089;-83
2023/07/03 02:18:34;;;;;;;6.65;3.50;;;;;;;20.42;94.61;99176.25;5110393;28;20031;-83
2023/07/03 02:21:00;;;;;;;9.07;3.63;;;;;;;20.55;93.91;99191.44;5110205;28;20059;-82
2023/07/03 02:23:26;;;;;;;10.18;3.55;;;;;;;20.45;93.66;99176.06;5110016;28;20024;-85
2023/07/03 02:25:51;;;;;;;5.95;2.33;;;;;;;20.51;93.68;99195.31;5109971;28;20028;-84
2023/07/03 02:28:18;;;;;;;8.77;3.90;;;;;;;20.27;93.72;99162.03;5090507;28;20514;-83
2023/07/03 02:30:43;;;;;;;6.97;2.25;;;;;;;20.37;93.97;99184.59;5089351;28;20041;-82
2023/07/03 02:33:10;;;;;;;9.63;2.88;;;;;;;20.63;93.03;99216.91;5089523;28;20099;-82
2023/07/03 02:35:37;;;;;;;7.15;2.35;;;;;;;20.38;93.69;99187.16;5089566;28;20162;-83
2023/07/03 02:38:03;;;;;;;5.97;3.50;;;;;;;20.48;93.82;99202.66;5090777;28;20028;-82
2023/07/03 02:40:29;;;;;;;9.98;1.88;;;;;;;20.53;93.91;99206.75;5089992;28;20039;-83
2023/07/03 02:42:54;;;;;;;6.53;4.30;;;;;;;20.29;94.90;99185.06;5093543;28;20391;-82
2023/07/03 02:45:19;;;;;;;3.53;2.30;;;;;;;20.34;94.46;99187.47;5083222;28;20083;-82
2023/07/03 02:47:45;;;;;;;4.78;3.25;;;;;;;20.45;94.64;99194.81;5090044;28;20116;-83
2023/07/03 02:50:10;;;;;;;5.90;2.58;;;;;;;20.64;94.19;99215.94;5070712;28;20036;-82
2023/07/03 02:52:36;;;;;;;6.03;3.55;;;;;;;20.21;96.26;99204.28;5089502;28;21084;-84
2023/07/03 02:55:02;;;;;;;4.40;2.67;;;;;;;20.57;95.26;99218.13;5089139;28;20044;-84
2023/07/03 02:57:28;;;;;;;5.35;2.17;;;;;;;20.56;95.41;99217.28;5089225;28;20117;-82
2023/07/03 02:59:54;;;;;;;5.20;2.83;;;;;;;20.70;95.13;99224.47;5088457;28;20133;-82
2023/07/03 03:02:20;;;;;;;5.72;2.80;;;;;;;20.63;94.22;99199.00;5091994;28;20510;-83
2023/07/03 03:04:47;;;;;;;5.07;3.53;;;;;;;20.61;93.97;99190.19;5092078;28;20028;-82
2023/07/03 03:07:13;;;;;;;4.45;2.78;;;;;;;20.85;93.09;99206.53;5092387;28;20084;-82
2023/07/03 03:09:40;;;;;;;3.90;2.67;;;;;;;20.84;93.47;99218.22;5093403;28;20160;-82
2023/07/03 03:12:06;;;;;;;4.25;2.40;;;;;;;20.54;92.41;99171.00;5092130;28;20035;-83
2023/07/03 03:14:31;;;;;;;3.97;1.90;;;;;;;20.60;93.10;99198.34;5073573;28;20024;-83
2023/07/03 03:16:58;;;;;;;3.13;2.13;;;;;;;20.56;93.97;99195.00;5092073;28;20396;-83
2023/07/03 03:19:24;;;;;;;7.25;2.63;;;;;;;20.54;94.60;99205.81;5093314;28;20035;-82
2023/07/03 03:21:52;;;;;;;5.15;2.58;;;;;;;20.53;94.52;99190.69;5091678;28;20028;-81
2023/07/03 03:24:17;;;;;;;11.73;2.42;;;;;;;20.68;94.48;99194.25;5074232;28;20495;-83
2023/07/03 03:26:43;;;;;;;24.95;2.85;;;;;;;20.70;94.30;99195.00;5093620;28;20067;-83
2023/07/03 03:29:08;;;;;;;6.65;2.05;;;;;;;20.91;94.53;99226.72;5103928;28;20034;-82
2023/07/03 03:31:34;;;;;;;12.70;3.53;;;;;;;21.00;93.54;99215.38;5092424;28;20413;-82
2023/07/03 03:33:59;;;;;;;3.97;1.80;;;;;;;21.03;93.10;99214.34;5091488;28;20093;-82
2023/07/03 03:36:25;;;;;;;8.32;3.03;;;;;;;20.92;93.19;99198.97;5091922;28;20035;-82
2023/07/03 03:38:50;;;;;;;4.95;3.08;;;;;;;21.20;93.82;99237.34;5110907;28;20061;-82
2023/07/03 03:41:16;;;;;;;9.50;3.45;;;;;;;20.99;94.01;99202.97;5111017;28;20454;-87
2023/07/03 03:43:41;;;;;;;4.43;2.80;;;;;;;21.28;93.82;99226.97;5111588;28;20107;-83
2023/07/03 03:46:08;;;;;;;9.75;3.42;;;;;;;21.34;92.39;99218.50;5111738;28;20467;-81
2023/07/03 03:48:34;;;;;;;5.80;3.20;;;;;;;21.30;91.64;99214.31;5094212;28;20082;-84
2023/07/03 03:51:01;;;;;;;5.55;3.00;;;;;;;21.29;90.94;99209.91;5092263;28;20098;-84
2023/07/03 03:53:27;;;;;;;5.30;3.25;;;;;;;21.42;90.99;99232.25;5091151;28;20093;-83
2023/07/03 03:55:53;;;;;;;7.65;4.18;;;;;;;21.20;91.92;99213.22;5091980;28;20134;-83
2023/07/03 03:58:19;;;;;;;8.23;4.05;;;;;;;21.27;91.93;99230.59;5105918;28;20047;-83
2023/07/03 04:00:46;;;;;;;4.72;3.67;;;;;;;21.14;92.02;99243.13;5109856;27;20043;-83
2023/07/03 04:03:12;;;;;;;4.00;2.22;;;;;;;21.16;91.59;99231.31;5094065;28;20094;-84
2023/07/03 04:05:39;;;;;;;6.82;3.30;;;;;;;21.18;91.23;99232.09;5094914;27;20028;-84
2023/07/03 04:08:05;;;;;;;4.22;2.60;;;;;;;21.34;91.80;99234.59;5102530;28;20036;-84
2023/07/03 04:10:30;;;;;;;5.25;3.00;;;;;;;21.53;90.50;99250.34;5096972;27;20044;-83
2023/07/03 04:12:56;;;;;;;4.82;3.30;;;;;;;21.58;91.21;99269.69;5099410;27;20101;-85
2023/07/03 04:15:24;;;;;;;5.03;2.58;;;;;;;21.62;91.05;99247.03;5092048;27;20032;-85
2023/07/03 04:17:50;;;;;;;5.88;3.80;;;;;;;21.89;90.01;99254.19;5092251;28;20032;-84
2023/07/03 04:20:16;;;;;;;6.53;3.08;;;;;;;22.15;88.07;99267.63;5074152;28;20116;-84
2023/07/03 04:22:42;;;;;;;7.28;2.60;;;;;;;22.06;88.24;99253.03;5092098;28;20028;-84
2023/07/03 04:25:09;;;;;;;5.93;3.75;;;;;;;22.27;86.34;99250.63;5091128;28;20032;-84
2023/07/03 04:27:37;;;;;;;4.78;2.88;;;;;;;22.44;86.30;99278.19;5090688;28;20170;-85
2023/07/03 04:30:05;;;;;;;7.30;3.45;;;;;;;22.24;87.58;99247.31;5098551;27;20110;-86
2023/07/03 04:32:30;;;;;;;4.00;2.55;;;;;;;22.49;85.82;99262.56;5103083;28;20039;-86
2023/07/03 04:34:57;;;;;;;7.55;3.97;;;;;;;22.67;85.11;99272.00;5096571;28;20028;-84
2023/07/03 04:37:26;;;;;;;7.47;3.40;;;;;;;22.73;85.16;99281.47;5091453;28;20040;-85
2023/07/03 04:39:53;;;;;;;5.60;3.17;;;;;;;22.77;85.04;99274.03;5103811;28;20023;-85
2023/07/03 04:42:19;;;;;;;4.20;3.55;;;;;;;22.81;85.41;99262.09;5109994;28;20100;-88
2023/07/03 04:44:46;;;;;;;8.63;4.57;;;;;;;23.05;84.43;99272.91;5106986;28;20446;-88
2023/07/03 04:47:15;;;;;;;8.82;3.65;;;;;;;23.26;83.75;99270.47;5091199;28;20035;-86
2023/07/03 04:49:42;;;;;;;7.05;3.90;;;;;;;23.27;81.15;99271.34;5091380;28;20120;-88
2023/07/03 04:52:07;;;;;;;6.50;4.30;;;;;;;23.49;81.54;99278.66;5106514;28;20047;-88
2023/07/03 04:54:33;;;;;;;9.68;3.70;;;;;;;23.47;81.24;99265.31;5101188;28;20405;-87
2023/07/03 04:56:58;;;;;;;8.40;4.72;;;;;;;23.86;80.50;99283.97;5111661;28;20429;-88
2023/07/03 04:59:24;;;;;;;8.20;3.92;;;;;;;23.71;79.91;99270.69;5108084;28;20119;-86
2023/07/03 05:01:49;;;;;;;8.00;4.20;;;;;;;24.02;80.12;99286.34;5080379;28;20050;-86
2023/07/03 05:04:15;;;;;;;5.80;4.43;;;;;;;24.21;79.50;99294.72;5101316;28;20038;-85
2023/07/03 05:06:40;;;;;;;5.70;4.15;;;;;;;24.26;79.18;99273.63;5110712;28;20031;-85
2023/07/03 05:09:08;;;;;;;6.63;3.50;;;;;;;24.55;77.27;99310.94;5096443;28;20044;-86
2023/07/03 05:11:34;;;;;;;6.78;4.47;;;;;;;24.70;77.19;99289.13;5106400;28;20420;-86
2023/07/03 05:14:00;;;;;;;6.47;4.55;;;;;;;24.44;76.86;99309.06;5084157;28;20566;-85
2023/07/03 05:16:25;;;;;;;5.32;3.95;;;;;;;23.81;74.74;99286.13;5109434;28;20024;-86
2023/07/03 05:18:51;;;;;;;7.57;4.53;;;;;;;23.76;76.97;99305.34;5110082;28;20019;-86
2023/07/03 05:21:16;;;;;;;6.63;4.53;;;;;;;23.45;76.94;99274.47;5116305;27;20416;-85
2023/07/03 05:23:42;;;;;;;11.73;6.20;;;;;;;23.91;76.88;99297.94;5096387;28;20024;-83
2023/07/03 05:26:07;;;;;;;10.07;6.65;;;;;;;23.81;74.64;99287.00;5096631;27;20032;-84
2023/07/03 05:28:36;;;;;;;7.63;4.75;;;;;;;23.72;77.22;99285.00;5090223;28;20032;-85
2023/07/03 05:31:02;;;;;;;10.25;5.93;;;;;;;23.82;74.25;99286.03;5101142;28;20085;-84
2023/07/03 05:33:29;;;;;;;12.07;6.78;;;;;;;23.49;73.88;99271.44;5098641;28;20497;-85
2023/07/03 05:35:59;;;;;;;7.55;4.65;;;;;;;23.75;76.43;99307.16;5104529;27;20028;-85
2023/07/03 05:38:24;;;;;;;8.90;5.78;;;;;;;24.07;76.14;99294.94;5108040;28;20527;-85
2023/07/03 05:40:50;;;;;;;10.30;5.57;;;;;;;24.22;73.95;99280.28;5110360;28;20115;-85
2023/07/03 05:43:15;;;;;;;8.32;5.35;;;;;;;24.40;70.65;99296.81;5110563;28;20051;-84
2023/07/03 05:45:41;;;;;;;7.18;5.45;;;;;;;24.70;72.31;99313.41;5110180;28;20417;-83
2023/07/03 05:48:07;;;;;;;16.52;4.65;;;;;;;24.88;70.29;99298.44;5110257;28;20035;-83
2023/07/03 05:50:32;;;;;;;7.63;5.47;;;;;;;24.68;67.32;99291.94;5104028;28;20066;-85
2023/07/03 05:52:58;;;;;;;9.10;4.35;;;;;;;24.71;69.93;99293.56;5110087;28;20031;-84
2023/07/03 05:55:23;;;;;;;8.43;5.38;;;;;;;24.45;68.56;99297.31;5107769;28;20026;-85
2023/07/03 05:57:49;;;;;;;7.18;4.57;;;;;;;24.66;68.27;99321.75;5095264;28;20058;-85
2023/07/03 06:00:14;;;;;;;13.30;7.55;;;;;;;24.62;67.72;99289.75;5091235;28;20125;-86
2023/07/03 06:02:41;;;;;;;9.38;5.75;;;;;;;25.09;66.55;99311.19;5093190;28;20035;-85
2023/07/03 06:05:07;;;;;;;10.45;5.95;;;;;;;24.96;65.39;99296.00;5090288;28;20044;-86
2023/07/03 06:07:33;;;;;;;6.43;4.32;;;;;;;24.87;64.58;99258.09;5101775;28;20469;-86
2023/07/03 06:09:58;;;;;;;9.02;5.32;;;;;;;25.28;65.76;99308.69;5101042;28;20043;-87
2023/07/03 06:12:29;;;;;;;9.25;6.47;;;;;;;25.36;65.17;99294.56;5093283;28;20028;-87
2023/07/03 06:14:58;;;;;;;9.27;5.85;;;;;;;25.67;64.51;99313.63;5090214;28;20077;-87
2023/07/03 06:17:25;;;;;;;12.32;6.78;;;;;;;26.12;65.88;99316.16;5089822;28;20028;-87
2023/07/03 06:19:51;;;;;;;10.35;5.05;;;;;;;25.98;62.93;99314.63;5095972;28;20033;-88
2023/07/03 06:22:17;;;;;;;8.05;5.75;;;;;;;25.69;61.97;99306.25;5078403;28;20063;-88
2023/07/03 06:24:42;;;;;;;8.80;5.80;;;;;;;25.68;63.22;99291.88;5071904;28;20093;-90
2023/07/03 06:27:08;;;;;;;8.15;5.30;;;;;;;25.75;64.30;99278.75;5089885;28;20043;-88
2023/07/03 06:29:33;;;;;;;7.88;4.55;;;;;;;26.29;62.03;99284.97;5094809;28;20440;-89
2023/07/03 06:31:59;;;;;;;5.75;4.18;;;;;;;26.53;58.83;99302.72;5082840;28;20023;-91
2023/07/03 06:34:24;;;;;;;9.73;4.57;;;;;;;26.27;60.01;99304.03;5110390;28;20035;-91
2023/07/03 06:36:50;;;;;;;9.32;4.63;;;;;;;26.03;60.32;99274.56;5112831;28;20032;-88
2023/07/03 06:39:15;;;;;;;9.10;5.32;;;;;;;26.61;59.77;99286.66;5114134;28;20543;-88
2023/07/03 06:41:41;;;;;;;9.15;5.32;;;;;;;26.67;59.67;99310.50;5114493;28;20124;-88
2023/07/03 06:44:12;;;;;;;8.95;5.25;;;;;;;26.88;60.63;99287.94;5114054;28;20059;-89
2023/07/03 06:46:38;;;;;;;8.55;5.55;;;;;;;27.04;59.77;99296.38;5114031;28;20052;-89
2023/07/03 06:49:04;;;;;;;11.32;4.75;;;;;;;27.03;58.16;99289.25;5113733;28;20031;-89
2023/07/03 06:51:29;;;;;;;5.60;4.03;;;;;;;27.06;57.53;99291.69;5110023;28;20032;-88
2023/07/03 06:53:55;;;;;;;9.82;6.32;;;;;;;27.49;57.33;99308.63;5104735;28;20078;-89
2023/07/03 06:56:21;;;;;;;11.10;6.60;;;;;;;27.43;58.75;99261.28;5108599;28;20036;-89
2023/07/03 06:58:48;;;;;;;10.70;5.07;;;;;;;27.84;56.76;99318.91;5103986;27;20028;-88
2023/07/03 07:01:14;;;;;;;10.48;5.63;;;;;;;28.28;57.03;99287.78;5102469;28;20020;-88
2023/07/03 07:03:40;;;;;;;8.10;4.38;;;;;;;28.65;57.19;99304.09;5093665;28;20117;-89
2023/07/03 07:06:11;;;;;;;8.30;5.55;;;;;;;28.24;53.10;99300.78;5099619;28;20036;-88
2023/07/03 07:08:37;;;;;;;6.53;4.65;;;;;;;28.38;55.38;99323.88;5098126;28;20019;-91
2023/07/03 07:11:07;;;;;;;11.68;5.57;;;;;;;28.40;53.66;99322.69;5096315;28;20732;-89
2023/07/03 07:13:32;;;;;;;9.00;5.38;;;;;;;28.10;54.70;99322.91;5099644;28;20031;-88
2023/07/03 07:15:58;;;;;;;8.75;4.10;;;;;;;28.23;54.44;99316.16;5095743;28;20117;-87
2023/07/03 07:18:23;;;;;;;7.78;5.72;;;;;;;28.70;55.14;99322.63;5093891;28;20035;-88
2023/07/03 07:20:48;;;;;;;8.82;4.40;;;;;;;28.83;52.21;99303.31;5092078;28;20051;-89
2023/07/03 07:23:14;;;;;;;10.13;6.13;;;;;;;28.68;52.56;99313.81;5099663;27;20104;-87
2023/07/03 07:25:39;;;;;;;8.05;5.70;;;;;;;28.70;54.63;99303.66;5093603;28;20028;-87
2023/07/03 07:28:05;;;;;;;7.85;4.88;;;;;;;29.15;51.54;99305.59;5094753;28;20020;-87
2023/07/03 07:30:32;;;;;;;7.45;4.97;;;;;;;28.82;49.77;99286.16;5090535;28;20051;-86
2023/07/03 07:32:57;;;;;;;13.13;5.65;;;;;;;28.92;51.75;99310.56;5093246;28;20038;-90
2023/07/03 07:35:23;;;;;;;5.90;3.95;;;;;;;28.89;50.60;99303.56;5097105;28;20016;-87
2023/07/03 07:37:48;;;;;;;12.15;5.18;;;;;;;29.37;53.89;99301.59;5095146;28;20030;-89
2023/07/03 07:40:15;;;;;;;6.43;3.92;;;;;;;28.75;51.26;99282.38;5099345;28;20142;-87
2023/07/03 07:42:40;;;;;;;7.22;4.28;;;;;;;29.17;51.43;99329.88;5098014;28;20024;-86
2023/07/03 07:45:07;;;;;;;7.15;4.07;;;;;;;29.12;55.42;99303.19;5075040;28;20050;-86
2023/07/03 07:47:32;;;;;;;9.15;4.40;;;;;;;29.56;55.60;99327.78;5092233;28;20047;-87
2023/07/03 07:49:59;;;;;;;7.45;5.07;;;;;;;29.26;52.16;99294.53;5096438;28;20048;-88
2023/07/03 07:52:26;;;;;;;8.48;4.78;;;;;;;29.71;54.17;99308.22;5092949;28;20034;-89
2023/07/03 07:54:55;;;;;;;6.68;4.35;;;;;;;29.79;52.61;99300.16;5068821;28;20452;-90
2023/07/03 07:57:20;;;;;;;7.07;3.90;;;;;;;30.43;51.50;99328.06;5092881;28;20027;-90
2023/07/03 07:59:46;;;;;;;8.10;4.70;;;;;;;30.25;51.00;99300.03;5093541;27;20024;-90
2023/07/03 08:02:11;;;;;;;8.73;5.63;;;;;;;30.35;51.39;99306.22;5078143;28;20032;-90
2023/07/03 08:04:37;;;;;;;9.45;5.70;;;;;;;30.58;50.16;99320.16;5094589;28;20028;-89
2023/07/03 08:07:02;;;;;;;6.55;4.45;;;;;;;30.93;49.46;99282.06;5096089;28;20409;-89
2023/07/03 08:09:28;;;;;;;8.65;5.18;;;;;;;31.01;47.69;99347.47;5091681;27;20435;-89
2023/07/03 08:11:53;;;;;;;7.50;5.05;;;;;;;30.97;48.07;99297.94;5075063;28;20036;-88
2023/07/03 08:14:19;;;;;;;7.40;4.65;;;;;;;30.68;46.00;99304.56;5090672;28;20063;-87
2023/07/03 08:16:45;;;;;;;6.70;4.07;;;;;;;30.47;46.39;99296.78;5090689;28;20049;-88
2023/07/03 08:19:10;;;;;;;6.80;4.57;;;;;;;30.58;47.41;99317.44;5089551;27;20031;-90
2023/07/03 08:21:36;;;;;;;6.78;4.50;;;;;;;30.34;45.83;99280.88;5089484;28;20742;-87
2023/07/03 08:24:01;;;;;;;9.32;5.07;;;;;;;30.75;46.37;99310.22;5094822;28;20032;-88
2023/07/03 08:26:27;;;;;;;7.63;4.53;;;;;;;30.27;46.64;99266.19;5095311;28;20532;-88
2023/07/03 08:28:53;;;;;;;7.45;5.13;;;;;;;30.69;47.71;99319.91;5092326;28;21739;-87
2023/07/03 08:31:18;;;;;;;7.55;5.75;;;;;;;31.06;47.54;99304.25;5094549;28;20031;-88
2023/07/03 08:33:44;;;;;;;8.63;5.40;;;;;;;30.83;49.11;99332.06;5095136;28;20028;-87
2023/07/03 08:36:09;;;;;;;6.22;4.13;;;;;;;31.01;47.60;99310.19;5081168;28;20473;-87
2023/07/03 08:38:35;;;;;;;6.85;5.65;;;;;;;30.86;45.70;99303.63;5102965;27;20039;-88
2023/07/03 08:41:01;;;;;;;8.20;5.25;;;;;;;31.33;45.83;99319.50;5111524;28;20035;-89
2023/07/03 08:43:38;;;;;;;7.50;3.90;;;;;;;31.22;44.37;99317.09;5105762;28;20085;-91
2023/07/03 08:46:12;;;;;;;5.80;4.03;;;;;;;31.80;42.60;99315.34;5090993;28;20059;-93
2023/07/03 08:48:40;;;;;;;8.20;4.67;;;;;;;30.81;44.13;99327.78;5096592;27;20036;-88
2023/07/03 08:51:12;;;;;;;7.93;4.32;;;;;;;31.17;43.57;99294.91;5111606;28;20285;-93
2023/07/03 08:53:43;;;;;;;7.15;4.47;;;;;;;31.46;43.78;99348.16;5101400;28;20421;-93
2023/07/03 08:56:17;;;;;;;5.43;3.20;;;;;;;31.28;41.26;99286.47;5092470;28;20031;-86
2023/07/03 08:58:46;;;;;;;5.97;3.85;;;;;;;31.94;42.40;99311.09;5110715;28;20051;-86
2023/07/03 09:01:41;;;;;;;5.75;3.42;;;;;;;32.07;40.21;99333.25;5091636;28;20515;-86
2023/07/03 09:04:31;;;;;;;8.18;4.90;;;;;;;32.29;40.75;99336.34;5110607;28;20512;-86
2023/07/03 09:07:01;;;;;;;11.93;4.15;;;;;;;32.91;42.79;99318.50;5110679;28;20108;-85
2023/07/03 09:09:44;;;;;;;4.97;3.40;;;;;;;32.59;40.53;99333.91;5110420;28;20132;-87
2023/07/03 09:12:35;;;;;;;5.45;2.97;;;;;;;32.09;39.48;99306.69;5110643;28;20071;-88
2023/07/03 09:15:23;;;;;;;6.95;4.13;;;;;;;32.70;41.51;99329.97;5110551;28;20562;-86
2023/07/03 09:17:52;;;;;;;8.38;4.72;;;;;;;32.19;37.96;99336.50;5005929;28;20177;-86
2023/07/03 09:20:20;;;;;;;8.30;3.83;;;;;;;32.21;43.13;99312.66;4976881;28;20042;-86
2023/07/03 09:22:45;;;;;;;5.47;3.50;;;;;;;32.51;43.19;99337.50;5001500;28;20038;-86
2023/07/03 09:25:30;;;;;;;6.35;4.47;;;;;;;33.08;40.53;99325.56;5001933;28;20080;-88
2023/07/03 09:27:59;;;;;;;4.90;3.15;;;;;;;33.40;41.40;99301.88;5003960;28;20067;-88
2023/07/03 09:30:25;;;;;;;8.27;4.45;;;;;;;32.58;40.99;99297.56;5009957;28;20112;-85
2023/07/03 09:32:50;;;;;;;6.35;4.30;;;;;;;32.68;39.16;99312.94;5007016;28;20113;-85
2023/07/03 09:35:20;;;;;;;8.70;3.90;;;;;;;32.98;36.75;99311.25;5013821;28;20056;-85
2023/07/03 09:37:51;;;;;;;4.60;3.08;;;;;;;33.07;42.64;99328.47;5010808;28;20043;-85
2023/07/03 09:40:25;;;;;;;5.85;3.33;;;;;;;33.16;39.04;99302.81;5008474;28;20032;-85
2023/07/03 09:42:52;;;;;;;6.10;3.70;;;;;;;33.45;36.32;99268.53;5008766;28;20085;-89
2023/07/03 09:45:21;;;;;;;6.97;3.55;;;;;;;33.10;40.31;99314.47;5005940;28;20499;-86
2023/07/03 09:47:50;;;;;;;8.88;4.75;;;;;;;33.30;39.77;99272.03;5009711;28;20609;-87
2023/07/03 09:50:22;;;;;;;4.72;3.38;;;;;;;33.02;37.54;99326.28;5024748;28;20033;-86
2023/07/03 09:52:54;;;;;;;4.32;3.05;;;;;;;32.76;36.58;99329.28;5027154;28;20041;-86
2023/07/03 09:55:19;;;;;;;4.93;2.97;;;;;;;32.88;40.13;99289.63;5070332;28;20097;-85
2023/07/03 09:57:45;;;;;;;7.18;3.63;;;;;;;33.25;36.45;99276.34;5089134;28;20028;-87
2023/07/03 10:00:15;;;;;;;5.43;3.40;;;;;;;32.98;40.55;99270.28;5094122;28;20034;-87
2023/07/03 10:02:44;;;;;;;8.68;3.67;;;;;;;33.83;40.20;99274.06;5088926;28;20031;-86
2023/07/03 10:05:18;;;;;;;6.20;3.63;;;;;;;34.22;39.25;99305.88;5089364;28;20074;-86
2023/07/03 10:07:45;;;;;;;9.93;3.80;;;;;;;33.40;38.87;99284.59;5071895;28;20123;-86
2023/07/03 10:10:22;;;;;;;6.70;4.00;;;;;;;33.85;40.44;99310.31;5089111;28;20494;-86
2023/07/03 10:13:01;;;;;;;6.55;3.92;;;;;;;33.76;38.55;99254.81;5090232;28;20024;-85
2023/07/03 10:15:31;;;;;;;6.38;3.80;;;;;;;34.70;35.92;99294.63;5089974;28;20028;-86
2023/07/03 10:18:06;;;;;;;5.78;3.78;;;;;;;34.38;36.25;99300.25;5089933;28;20522;-86
2023/07/03 10:20:44;;;;;;;7.32;3.05;;;;;;;34.10;34.12;99289.06;5089789;28;20028;-86
2023/07/03 10:23:31;;;;;;;7.32;3.40;;;;;;;34.41;32.74;99293.56;5089424;28;20042;-87
2023/07/03 10:26:04;;;;;;;7.95;3.42;;;;;;;34.38;36.03;99299.41;5071571;28;20391;-86
2023/07/03 10:28:36;;;;;;;6.97;4.15;;;;;;;33.66;38.87;99276.06;5089468;28;20482;-85
2023/07/03 10:31:09;;;;;;;4.80;3.30;;;;;;;34.07;40.67;99262.91;5089904;28;20032;-86
2023/07/03 10:33:42;;;;;;;5.47;2.88;;;;;;;33.68;36.45;99280.31;5089326;28;20066;-85
2023/07/03 10:36:14;;;;;;;6.35;3.85;;;;;;;33.89;42.58;99279.69;5089888;28;20051;-87
2023/07/03 10:38:49;;;;;;;5.25;3.63;;;;;;;34.22;33.98;99245.69;5089703;28;20036;-86
2023/07/03 10:41:21;;;;;;;5.38;4.05;;;;;;;34.69;39.60;99291.03;5089871;28;20024;-86
2023/07/03 10:43:55;;;;;;;7.63;4.07;;;;;;;34.41;35.77;99282.63;5089553;28;20032;-86
2023/07/03 10:46:30;;;;;;;6.68;3.55;;;;;;;34.20;33.32;99262.28;5089884;28;20522;-86
2023/07/03 10:49:01;;;;;;;4.10;2.72;;;;;;;33.87;33.36;99284.47;5089753;28;20028;-86
2023/07/03 10:51:50;;;;;;;4.95;2.90;;;;;;;33.89;33.77;99240.50;5089937;28;20024;-86
2023/07/03 10:54:22;;;;;;;5.85;3.63;;;;;;;34.42;35.01;99265.16;5089832;28;20028;-86
2023/07/03 10:56:55;;;;;;;5.68;3.50;;;;;;;33.94;33.08;99218.94;5089716;28;20028;-86
2023/07/03 10:59:33;;;;;;;5.65;3.05;;;;;;;34.33;32.47;99269.03;5089169;28;20036;-86
2023/07/03 11:02:22;;;;;;;8.85;4.13;;;;;;;34.05;33.49;99259.53;5093582;28;20082;-86
2023/07/03 11:05:08;;;;;;;5.32;2.90;;;;;;;34.26;35.00;99244.28;5092813;28;20028;-87
2023/07/03 11:07:57;;;;;;;4.78;2.85;;;;;;;33.82;35.53;99265.03;5089860;28;20119;-86
2023/07/03 11:10:36;;;;;;;4.63;3.25;;;;;;;33.45;37.66;99236.56;5071138;28;20064;-86
2023/07/03 11:13:21;;;;;;;6.80;3.42;;;;;;;33.94;39.19;99268.19;5096990;28;20028;-88
2023/07/03 11:16:15;;;;;;;5.60;3.10;;;;;;;34.47;35.03;99261.88;5090731;28;20027;-88
2023/07/03 11:18:55;;;;;;;7.00;3.85;;;;;;;33.59;33.06;99245.88;5093329;28;20028;-87
2023/07/03 11:21:28;;;;;;;5.40;3.13;;;;;;;34.12;33.43;99245.09;5094388;28;20032;-87
2023/07/03 11:24:09;;;;;;;6.75;3.78;;;;;;;34.11;33.67;99237.91;5095509;28;20505;-85
2023/07/03 11:26:41;;;;;;;6.57;4.15;;;;;;;34.63;33.95;99255.34;5096531;28;20455;-85
2023/07/03 11:29:10;;;;;;;6.60;4.00;;;;;;;34.00;35.01;99237.34;5098361;28;20081;-89
2023/07/03 11:31:39;;;;;;;6.30;3.92;;;;;;;33.49;39.44;99209.72;5095589;28;20131;-87
2023/07/03 11:34:09;;;;;;;6.00;3.53;;;;;;;33.99;34.75;99208.28;5099742;28;20037;-89
2023/07/03 11:36:34;;;;;;;5.07;3.65;;;;;;;34.40;34.45;99243.47;5094419;28;20028;-87
2023/07/03 11:39:19;;;;;;;5.90;3.58;;;;;;;34.87;32.15;99222.19;5093886;28;20081;-87